Time;durP1;ratioP1;P1;durP2;ratioP2;P2;SDS_P1;SDS_P2;PMS_P1;PMS_P2;Temp;Humidity;BMP_temperature;BMP_pressure;BME280_temperature;BME280_humidity;BME280_pressure;Samples;Min_cycle;Max_cycle;Signal;HPM_P1;HPM_P2
2021/03/20 00:01:41;;;;;;;7.93;5.37;;;;;;;-1.61;100.00;98922.38;5094843;28;20211;-68
2021/03/20 00:04:09;;;;;;;8.97;5.27;;;;;;;-1.59;100.00;98922.38;5094706;28;20647;-68
2021/03/20 00:06:38;;;;;;;9.20;6.07;;;;;;;-1.59;100.00;98922.38;5094627;28;20743;-69
2021/03/20 00:09:07;;;;;;;9.70;6.70;;;;;;;-1.67;100.00;98924.19;5092909;28;20217;-70
2021/03/20 00:11:34;;;;;;;8.30;5.87;;;;;;;-1.61;100.00;98924.13;5094391;28;20747;-70
2021/03/20 00:14:00;;;;;;;7.90;5.70;;;;;;;-1.59;100.00;98924.97;5094621;28;20231;-69
2021/03/20 00:16:26;;;;;;;10.13;6.67;;;;;;;-1.54;100.00;98918.00;5094544;28;20211;-69
2021/03/20 00:18:53;;;;;;;7.97;5.87;;;;;;;-1.54;100.00;98923.19;5094542;28;20217;-69
2021/03/20 00:21:20;;;;;;;9.13;5.97;;;;;;;-1.57;100.00;98926.66;5094492;28;20217;-70
2021/03/20 00:23:46;;;;;;;8.87;5.80;;;;;;;-1.62;100.00;98920.66;5094503;28;20642;-70
2021/03/20 00:26:13;;;;;;;10.83;6.43;;;;;;;-1.59;100.00;98930.97;5094409;28;20242;-71
2021/03/20 00:28:39;;;;;;;8.30;5.50;;;;;;;-1.55;100.00;98922.31;5094400;28;20276;-68
2021/03/20 00:31:09;;;;;;;9.03;5.53;;;;;;;-1.49;100.00;98926.56;5094272;28;20214;-67
2021/03/20 00:33:35;;;;;;;8.37;6.13;;;;;;;-1.35;100.00;98919.53;5093894;28;20702;-70
2021/03/20 00:36:01;;;;;;;8.30;5.40;;;;;;;-1.20;100.00;98919.38;5092546;28;20210;-71
2021/03/20 00:38:29;;;;;;;7.83;5.80;;;;;;;-1.11;100.00;98911.50;5094257;28;20213;-67
2021/03/20 00:40:56;;;;;;;8.00;5.63;;;;;;;-0.97;100.00;98917.41;5093976;28;20226;-67
2021/03/20 00:43:23;;;;;;;9.30;6.40;;;;;;;-1.04;100.00;98920.94;5093766;28;20275;-68
2021/03/20 00:45:50;;;;;;;10.17;6.03;;;;;;;-1.09;100.00;98927.91;5093779;28;20228;-69
2021/03/20 00:48:21;;;;;;;10.93;5.90;;;;;;;-1.01;100.00;98920.88;5093633;28;20211;-69
2021/03/20 00:50:48;;;;;;;9.77;6.17;;;;;;;-0.92;100.00;98926.00;5093925;28;20214;-68
2021/03/20 00:53:14;;;;;;;8.40;6.17;;;;;;;-0.88;100.00;98923.34;5093762;28;20564;-67
2021/03/20 00:55:41;;;;;;;9.23;6.37;;;;;;;-0.76;100.00;98930.97;5093807;28;20210;-68
2021/03/20 00:58:22;;;;;;;9.37;6.00;;;;;;;-0.72;100.00;98929.19;5093796;28;20210;-67
2021/03/20 01:00:48;;;;;;;8.70;5.90;;;;;;;-0.62;100.00;98934.25;5093142;28;20234;-67
2021/03/20 01:03:15;;;;;;;9.77;5.97;;;;;;;-0.61;100.00;98932.53;5092887;28;20207;-69
2021/03/20 01:05:42;;;;;;;8.03;6.03;;;;;;;-0.67;100.00;98932.59;5093697;28;20553;-69
2021/03/20 01:08:08;;;;;;;7.90;5.77;;;;;;;-0.76;100.00;98928.38;5093748;28;20297;-69
2021/03/20 01:10:35;;;;;;;8.07;6.27;;;;;;;-0.88;100.00;98933.72;5093641;28;20221;-69
2021/03/20 01:13:02;;;;;;;10.47;6.73;;;;;;;-0.83;100.00;98931.06;5093538;28;20231;-70
2021/03/20 01:15:28;;;;;;;8.53;6.03;;;;;;;-0.67;100.00;98927.41;5093586;28;20574;-69
2021/03/20 01:17:55;;;;;;;9.53;6.00;;;;;;;-0.59;100.00;98931.63;5093403;28;20213;-69
2021/03/20 01:20:21;;;;;;;9.77;6.10;;;;;;;-0.48;100.00;98928.91;5093075;28;20235;-69
2021/03/20 01:22:47;;;;;;;8.37;6.13;;;;;;;-0.41;100.00;98930.53;5093108;28;20211;-69
2021/03/20 01:25:14;;;;;;;8.27;5.63;;;;;;;-0.37;100.00;98932.22;5093457;28;20221;-69
2021/03/20 01:27:40;;;;;;;7.60;5.90;;;;;;;-0.35;100.00;98927.84;5091791;28;20211;-70
2021/03/20 01:30:12;;;;;;;7.73;5.17;;;;;;;-0.18;99.83;98928.47;5093443;28;20237;-71
2021/03/20 01:32:38;;;;;;;8.37;5.53;;;;;;;-0.17;100.00;98934.50;5093334;28;20709;-70
2021/03/20 01:35:06;;;;;;;6.77;5.13;;;;;;;-0.14;100.00;98930.16;5092918;28;20254;-69
2021/03/20 01:37:31;;;;;;;9.47;5.87;;;;;;;-0.05;100.00;98926.53;5093235;28;20210;-70
2021/03/20 01:39:57;;;;;;;7.60;4.93;;;;;;;0.06;98.15;98929.84;5092727;28;20280;-69
2021/03/20 01:42:23;;;;;;;7.20;5.43;;;;;;;0.04;98.82;98930.72;5093418;28;20683;-69
2021/03/20 01:45:19;;;;;;;8.10;5.67;;;;;;;0.05;99.42;98933.31;5093439;28;20309;-70
2021/03/20 01:48:06;;;;;;;8.97;5.13;;;;;;;0.08;99.77;98941.06;5093030;28;20215;-68
2021/03/20 01:50:37;;;;;;;7.90;5.53;;;;;;;0.10;99.29;98939.31;5093081;28;20210;-69
2021/03/20 01:53:14;;;;;;;8.00;5.83;;;;;;;0.14;99.26;98937.53;5091585;28;20207;-68
2021/03/20 01:55:40;;;;;;;8.20;5.27;;;;;;;0.11;98.74;98938.41;5093239;28;20203;-69
2021/03/20 01:58:06;;;;;;;8.40;5.30;;;;;;;0.24;97.37;98941.66;5093032;28;20203;-69
2021/03/20 02:00:36;;;;;;;7.07;5.20;;;;;;;0.26;96.43;98935.56;5092621;28;20420;-69
2021/03/20 02:03:04;;;;;;;7.43;5.53;;;;;;;0.21;96.83;98931.34;5093016;28;20207;-69
2021/03/20 02:05:31;;;;;;;8.00;5.77;;;;;;;0.14;96.86;98933.16;5093083;28;20250;-69
2021/03/20 02:07:59;;;;;;;7.77;5.47;;;;;;;0.15;96.76;98944.44;5093366;28;20575;-69
2021/03/20 02:10:28;;;;;;;9.10;5.60;;;;;;;0.19;95.14;98936.56;5093070;28;20641;-69
2021/03/20 02:12:57;;;;;;;9.53;6.97;;;;;;;0.15;95.12;98940.09;5092708;28;20231;-69
2021/03/20 02:15:29;;;;;;;7.53;5.33;;;;;;;0.15;95.73;98934.91;5092923;28;20207;-69
2021/03/20 02:18:04;;;;;;;7.30;5.60;;;;;;;0.18;95.12;98937.44;5092753;28;20215;-70
2021/03/20 02:20:45;;;;;;;7.83;5.23;;;;;;;0.16;96.04;98935.75;5090903;28;20739;-69
2021/03/20 02:23:44;;;;;;;9.30;5.87;;;;;;;0.17;95.76;98940.94;5092659;28;20285;-68
2021/03/20 02:26:58;;;;;;;9.77;5.73;;;;;;;0.04;97.04;98934.22;5092761;28;20207;-69
2021/03/20 02:30:02;;;;;;;10.00;5.37;;;;;;;0.12;97.49;98937.53;5030384;28;20602;-66
2021/03/20 02:32:39;;;;;;;9.33;5.47;;;;;;;0.21;97.69;98934.81;5092760;28;20207;-68
2021/03/20 02:35:11;;;;;;;6.47;5.00;;;;;;;0.30;96.76;98937.25;5092683;28;20214;-69
2021/03/20 02:37:45;;;;;;;9.43;5.93;;;;;;;0.13;97.65;98928.84;5092832;28;20236;-68
2021/03/20 02:40:20;;;;;;;6.23;4.80;;;;;;;0.08;99.22;98933.25;5092742;28;20238;-71
2021/03/20 02:42:54;;;;;;;8.07;5.93;;;;;;;0.12;99.65;98934.94;5092839;28;20206;-70
2021/03/20 02:45:27;;;;;;;5.80;4.70;;;;;;;0.10;99.46;98917.66;5090935;28;20202;-70
2021/03/20 02:48:02;;;;;;;8.60;5.23;;;;;;;0.12;100.00;98921.94;5092972;28;20565;-70
2021/03/20 02:50:35;;;;;;;7.47;5.57;;;;;;;-0.01;100.00;98923.00;5092954;28;20214;-70
2021/03/20 02:53:07;;;;;;;8.60;5.43;;;;;;;0.15;99.20;98927.09;5096311;28;20224;-70
2021/03/20 02:55:37;;;;;;;6.93;5.27;;;;;;;0.27;97.91;98934.72;5095906;28;20557;-70
2021/03/20 02:58:08;;;;;;;8.00;5.50;;;;;;;0.34;97.43;98938.94;5095795;28;20210;-70
2021/03/20 03:00:37;;;;;;;7.07;5.57;;;;;;;0.28;97.32;98931.22;5095975;28;20241;-70
2021/03/20 03:03:08;;;;;;;7.07;5.30;;;;;;;0.30;97.63;98929.44;5095717;28;20214;-69
2021/03/20 03:05:40;;;;;;;9.57;5.57;;;;;;;0.27;98.64;98934.72;5096015;28;20407;-67
2021/03/20 03:08:10;;;;;;;6.87;5.80;;;;;;;0.25;98.97;98931.25;5095795;28;20206;-68
2021/03/20 03:10:40;;;;;;;7.83;5.80;;;;;;;0.26;99.05;98935.56;5095924;28;20207;-68
2021/03/20 03:13:11;;;;;;;7.70;5.83;;;;;;;0.27;97.81;98926.03;5094157;28;20249;-68
2021/03/20 03:15:41;;;;;;;8.23;5.67;;;;;;;0.22;98.34;98926.13;5095794;28;20202;-67
2021/03/20 03:18:13;;;;;;;8.10;6.20;;;;;;;0.17;99.75;98925.34;5095762;28;20214;-67
2021/03/20 03:20:43;;;;;;;7.13;6.00;;;;;;;0.16;100.00;98926.22;5095639;28;20235;-67
2021/03/20 03:23:13;;;;;;;6.87;5.57;;;;;;;0.20;98.56;98933.06;5095710;28;20215;-67
2021/03/20 03:25:43;;;;;;;7.00;5.77;;;;;;;0.14;98.96;98927.97;5095585;28;20240;-67
2021/03/20 03:28:13;;;;;;;7.20;5.57;;;;;;;0.10;100.00;98931.50;5095319;28;20734;-69
2021/03/20 03:30:39;;;;;;;7.87;5.63;;;;;;;0.10;99.95;98941.03;5095623;28;20225;-69
2021/03/20 03:33:13;;;;;;;8.53;5.57;;;;;;;0.11;100.00;98946.22;5095119;28;20661;-68
2021/03/20 03:35:43;;;;;;;9.60;5.70;;;;;;;0.10;99.78;98956.63;5095429;28;20208;-69
2021/03/20 03:38:21;;;;;;;6.97;5.40;;;;;;;0.06;100.00;98961.00;5093969;28;20222;-68
2021/03/20 03:40:52;;;;;;;7.40;5.20;;;;;;;0.11;100.00;98951.41;5095188;28;20230;-69
2021/03/20 03:43:18;;;;;;;7.00;5.43;;;;;;;0.09;100.00;98960.13;5095367;28;20230;-68
2021/03/20 03:45:45;;;;;;;6.97;5.60;;;;;;;0.16;100.00;98960.00;5095074;28;20718;-68
2021/03/20 03:48:13;;;;;;;8.90;5.43;;;;;;;0.08;100.00;98961.84;5095164;28;20244;-68
2021/03/20 03:50:41;;;;;;;8.50;6.13;;;;;;;0.06;100.00;98966.22;5094859;28;20207;-67
2021/03/20 03:53:09;;;;;;;8.03;5.73;;;;;;;0.06;100.00;98966.22;5095080;28;20207;-68
2021/03/20 03:55:35;;;;;;;8.20;5.43;;;;;;;0.02;100.00;98974.91;5095034;28;20211;-70
2021/03/20 03:58:12;;;;;;;8.77;6.00;;;;;;;0.06;100.00;98971.41;5094692;28;20750;-69
2021/03/20 04:00:42;;;;;;;8.77;5.90;;;;;;;0.04;100.00;98972.31;5094688;28;20655;-70
2021/03/20 04:03:55;;;;;;;7.73;6.00;;;;;;;-0.11;100.00;98968.19;5094156;28;20211;-68
2021/03/20 04:06:43;;;;;;;7.43;5.43;;;;;;;-0.27;100.00;98965.81;5094569;28;20691;-68
2021/03/20 04:09:19;;;;;;;7.30;5.60;;;;;;;-0.35;100.00;98966.81;5094568;28;20218;-68
2021/03/20 04:11:53;;;;;;;7.43;5.70;;;;;;;-0.31;100.00;98974.53;5094492;28;20682;-68
2021/03/20 04:14:25;;;;;;;8.03;6.00;;;;;;;-0.46;100.00;98976.47;5094486;28;20716;-70
2021/03/20 04:16:59;;;;;;;8.43;6.23;;;;;;;-0.64;100.00;98963.69;5094821;28;20240;-69
2021/03/20 04:19:37;;;;;;;8.00;6.07;;;;;;;-0.81;100.00;98950.09;5094476;28;20707;-68
2021/03/20 04:22:08;;;;;;;7.80;5.90;;;;;;;-0.90;100.00;98965.75;5094205;28;20207;-70
2021/03/20 04:24:39;;;;;;;7.40;5.90;;;;;;;-1.07;100.00;98967.66;5094443;28;20211;-70
2021/03/20 04:27:09;;;;;;;9.20;6.30;;;;;;;-1.00;100.00;98972.75;5094574;28;20570;-67
2021/03/20 04:29:41;;;;;;;8.30;6.60;;;;;;;-1.17;100.00;98960.84;5092646;28;20218;-68
2021/03/20 04:32:12;;;;;;;8.07;5.73;;;;;;;-1.15;100.00;98970.34;5094318;28;20211;-69
2021/03/20 04:34:46;;;;;;;8.27;6.03;;;;;;;-1.10;100.00;98978.91;5093913;28;20202;-69
2021/03/20 04:37:15;;;;;;;9.17;6.43;;;;;;;-1.06;100.00;98982.38;5094205;28;20238;-68
2021/03/20 04:39:44;;;;;;;8.03;6.47;;;;;;;-1.12;100.00;98995.38;5093740;28;20234;-68
2021/03/20 04:42:12;;;;;;;9.10;6.43;;;;;;;-1.19;100.00;98988.50;5093757;28;20282;-69
2021/03/20 04:44:39;;;;;;;10.67;6.73;;;;;;;-1.20;100.00;98992.00;5093759;28;20217;-70
2021/03/20 04:47:08;;;;;;;8.87;6.67;;;;;;;-1.24;100.00;98990.31;5093765;28;20675;-71
2021/03/20 04:49:45;;;;;;;9.80;6.63;;;;;;;-1.34;100.00;99001.63;5094118;28;20212;-71
2021/03/20 04:52:16;;;;;;;9.90;6.93;;;;;;;-1.41;100.00;98999.97;5093979;28;20210;-69
2021/03/20 04:54:43;;;;;;;10.17;7.03;;;;;;;-1.29;100.00;99002.47;5093994;28;20214;-70
2021/03/20 04:57:23;;;;;;;10.00;7.30;;;;;;;-1.45;100.00;98990.50;5091942;28;20209;-69
2021/03/20 04:59:59;;;;;;;9.27;6.27;;;;;;;-1.47;100.00;98994.84;5093650;28;20313;-69
2021/03/20 05:02:31;;;;;;;9.70;6.63;;;;;;;-1.38;100.00;98997.34;5093418;28;20206;-70
2021/03/20 05:05:04;;;;;;;9.43;6.80;;;;;;;-1.48;100.00;98985.34;5093795;28;20625;-70
2021/03/20 05:07:31;;;;;;;10.23;6.77;;;;;;;-1.48;100.00;98986.19;5093672;28;20558;-70
2021/03/20 05:09:59;;;;;;;10.23;6.57;;;;;;;-1.53;100.00;98997.47;5093299;28;20211;-70
2021/03/20 05:12:27;;;;;;;8.93;6.97;;;;;;;-1.62;100.00;98990.63;5093160;28;20741;-70
2021/03/20 05:15:01;;;;;;;12.03;7.67;;;;;;;-1.67;100.00;98994.13;5092848;28;20237;-69
2021/03/20 05:17:27;;;;;;;10.03;7.23;;;;;;;-1.61;100.00;98994.09;5093344;28;20209;-68
2021/03/20 05:19:53;;;;;;;10.40;7.20;;;;;;;-1.38;100.00;99002.53;5093679;28;20238;-68
2021/03/20 05:22:24;;;;;;;9.37;6.90;;;;;;;-1.39;100.00;99003.41;5091858;28;20656;-69
2021/03/20 05:24:51;;;;;;;9.07;6.80;;;;;;;-1.33;100.00;98995.56;5093525;28;20211;-69
2021/03/20 05:27:20;;;;;;;8.20;6.23;;;;;;;-1.36;100.00;98993.84;5093447;28;20670;-70
2021/03/20 05:29:46;;;;;;;8.63;6.80;;;;;;;-1.39;100.00;99000.81;5093515;28;20215;-70
2021/03/20 05:32:16;;;;;;;7.87;6.23;;;;;;;-1.41;100.00;99005.16;5093078;28;20667;-70
2021/03/20 05:34:44;;;;;;;10.50;6.77;;;;;;;-1.32;100.00;99002.47;5093323;28;20217;-69
2021/03/20 05:37:18;;;;;;;9.43;6.90;;;;;;;-1.23;100.00;99007.59;5093388;28;20574;-71
2021/03/20 05:39:46;;;;;;;8.93;6.20;;;;;;;-1.19;100.00;99006.66;5093312;28;20298;-70
2021/03/20 05:42:22;;;;;;;8.53;6.30;;;;;;;-1.24;100.00;99016.25;5092941;28;20203;-69
2021/03/20 05:44:57;;;;;;;9.00;6.20;;;;;;;-1.29;100.00;99010.25;5093179;28;20217;-68
2021/03/20 05:47:33;;;;;;;7.90;6.07;;;;;;;-1.17;100.00;99008.38;5092688;28;20293;-69
2021/03/20 05:50:10;;;;;;;8.97;6.47;;;;;;;-1.28;100.00;99017.13;5092460;28;20211;-70
2021/03/20 05:52:51;;;;;;;10.93;6.40;;;;;;;-1.28;100.00;99009.34;5092842;28;20256;-70
2021/03/20 05:55:28;;;;;;;9.43;5.83;;;;;;;-1.13;100.00;99017.88;5092959;28;20209;-69
2021/03/20 05:58:10;;;;;;;8.97;6.60;;;;;;;-1.11;100.00;99021.28;5092934;28;20210;-70
2021/03/20 06:00:44;;;;;;;8.30;5.87;;;;;;;-1.09;100.00;99032.53;5093039;28;20234;-70
2021/03/20 06:03:28;;;;;;;8.63;5.53;;;;;;;-1.04;100.00;99020.34;5093007;28;20209;-70
2021/03/20 06:05:57;;;;;;;7.60;5.80;;;;;;;-1.02;100.00;99022.94;5092947;28;20211;-68
2021/03/20 06:08:50;;;;;;;9.03;5.70;;;;;;;-0.98;100.00;99024.66;5093061;28;20226;-69
2021/03/20 06:11:32;;;;;;;7.40;5.50;;;;;;;-0.86;100.00;99032.31;5093001;28;20220;-70
2021/03/20 06:14:18;;;;;;;7.10;5.37;;;;;;;-0.79;100.00;99041.75;5091048;28;20586;-71
2021/03/20 06:16:51;;;;;;;5.87;4.57;;;;;;;-0.76;100.00;99036.50;5092964;28;20218;-70
2021/03/20 06:19:33;;;;;;;5.50;4.27;;;;;;;-0.64;100.00;99036.38;5092762;28;20206;-71
2021/03/20 06:22:32;;;;;;;6.70;4.70;;;;;;;-0.48;100.00;99053.53;5092801;28;20265;-71
2021/03/20 06:25:13;;;;;;;6.77;4.60;;;;;;;-0.49;100.00;99052.66;5088463;28;20206;-71
2021/03/20 06:27:45;;;;;;;6.90;4.70;;;;;;;-0.50;100.00;99061.31;5096787;28;20217;-70
2021/03/20 06:30:32;;;;;;;5.93;4.83;;;;;;;-0.44;100.00;99065.59;5096594;28;20237;-70
2021/03/20 06:33:06;;;;;;;6.17;4.30;;;;;;;-0.28;98.61;99062.81;5096357;28;20210;-71
2021/03/20 06:35:37;;;;;;;4.93;4.27;;;;;;;-0.16;95.73;99079.09;5096541;28;20205;-70
2021/03/20 06:38:06;;;;;;;13.40;5.00;;;;;;;-0.20;95.43;99075.72;5096498;28;20219;-66
2021/03/20 06:40:45;;;;;;;5.73;4.23;;;;;;;-0.17;96.42;99075.66;5094777;28;20238;-66
2021/03/20 06:43:13;;;;;;;4.77;4.20;;;;;;;-0.04;91.83;99084.13;5096533;28;20222;-66
2021/03/20 06:45:39;;;;;;;6.53;4.20;;;;;;;-0.10;92.50;99089.41;5096344;28;20222;-67
2021/03/20 06:48:11;;;;;;;5.73;4.03;;;;;;;-0.19;92.63;99088.66;5096228;28;20203;-66
2021/03/20 06:50:40;;;;;;;5.50;4.37;;;;;;;-0.10;92.18;99089.41;5096407;28;20579;-66
2021/03/20 06:53:09;;;;;;;4.50;3.90;;;;;;;-0.11;91.04;99086.84;5096342;28;20312;-65
2021/03/20 06:55:37;;;;;;;4.83;3.60;;;;;;;-0.05;90.20;99095.41;5096049;28;20582;-66
2021/03/20 06:58:07;;;;;;;6.90;4.07;;;;;;;0.00;89.69;99096.22;5096247;28;20206;-66
2021/03/20 07:00:35;;;;;;;5.50;4.00;;;;;;;0.15;86.46;99098.66;5096033;28;20238;-66
2021/03/20 07:03:22;;;;;;;4.60;3.60;;;;;;;0.17;86.07;99104.69;5095746;28;20207;-66
2021/03/20 07:05:56;;;;;;;5.10;3.83;;;;;;;0.15;84.98;99101.25;5095009;28;20571;-67
2021/03/20 07:08:38;;;;;;;4.83;3.70;;;;;;;0.15;84.93;99106.44;5095925;28;20221;-67
2021/03/20 07:11:14;;;;;;;4.23;3.40;;;;;;;0.20;83.40;99094.22;5095853;28;20213;-70
2021/03/20 07:13:45;;;;;;;4.40;3.77;;;;;;;0.26;83.61;99094.16;5095622;28;20609;-69
2021/03/20 07:16:16;;;;;;;5.97;3.33;;;;;;;0.34;80.84;99096.66;5095528;28;20218;-69
2021/03/20 07:18:47;;;;;;;6.47;3.60;;;;;;;0.37;81.03;99097.47;5095425;28;20671;-69
2021/03/20 07:21:32;;;;;;;4.93;3.67;;;;;;;0.45;80.68;99107.78;5095690;28;20274;-69
2021/03/20 07:24:03;;;;;;;4.87;3.20;;;;;;;0.51;79.77;99103.31;5095336;28;20668;-70
2021/03/20 07:26:32;;;;;;;4.00;3.60;;;;;;;0.57;81.23;99111.03;5095743;28;20202;-69
2021/03/20 07:29:01;;;;;;;3.77;3.37;;;;;;;0.65;80.01;99109.22;5095481;28;20217;-68
2021/03/20 07:31:29;;;;;;;3.60;3.30;;;;;;;0.67;78.08;99112.63;5095342;28;20229;-68
2021/03/20 07:34:12;;;;;;;6.10;3.70;;;;;;;0.72;79.31;99104.75;5093922;28;20242;-70
2021/03/20 07:36:39;;;;;;;5.80;3.77;;;;;;;0.90;79.98;99110.56;5094413;28;20229;-69
2021/03/20 07:39:19;;;;;;;4.27;3.70;;;;;;;1.01;81.04;99113.84;5095311;28;20211;-70
2021/03/20 07:41:55;;;;;;;6.50;4.00;;;;;;;1.15;75.37;99111.00;5095196;28;20207;-70
2021/03/20 07:44:23;;;;;;;3.60;3.27;;;;;;;1.09;74.95;99117.19;5095045;28;20299;-71
2021/03/20 07:46:51;;;;;;;7.57;3.70;;;;;;;1.08;76.09;99118.06;5095146;28;20580;-71
2021/03/20 07:49:29;;;;;;;4.03;3.40;;;;;;;1.18;78.18;99111.81;5095094;28;20211;-70
2021/03/20 07:51:59;;;;;;;4.40;3.33;;;;;;;1.25;78.00;99110.84;5094785;28;20205;-70
2021/03/20 07:54:30;;;;;;;5.33;3.63;;;;;;;1.34;76.40;99121.09;5094703;28;20213;-69
2021/03/20 07:57:06;;;;;;;5.00;3.50;;;;;;;1.34;76.74;99122.84;5094755;28;20247;-69
2021/03/20 07:59:33;;;;;;;3.50;3.20;;;;;;;1.42;74.47;99132.22;5092893;28;20221;-69
2021/03/20 08:02:02;;;;;;;4.03;3.23;;;;;;;1.52;71.97;99132.94;5095006;28;20207;-70
2021/03/20 08:04:56;;;;;;;3.53;3.23;;;;;;;1.46;70.72;99146.94;5094801;28;20587;-70
2021/03/20 08:07:35;;;;;;;3.57;3.10;;;;;;;1.36;70.04;99149.72;5094611;28;20726;-70
2021/03/20 08:10:22;;;;;;;3.00;2.70;;;;;;;1.36;68.50;99158.38;5094510;28;20218;-70
2021/03/20 08:13:01;;;;;;;4.00;2.80;;;;;;;1.17;69.41;99146.56;5094458;28;20270;-69
2021/03/20 08:15:30;;;;;;;3.03;2.50;;;;;;;1.10;67.71;99159.72;5094530;28;20206;-70
2021/03/20 08:17:59;;;;;;;3.13;2.53;;;;;;;1.16;67.34;99159.63;5094268;28;20689;-70
2021/03/20 08:20:26;;;;;;;4.23;2.87;;;;;;;1.15;66.82;99148.31;5094450;28;20227;-70
2021/03/20 08:23:16;;;;;;;2.80;2.60;;;;;;;1.20;66.01;99149.13;5094399;28;20202;-70
2021/03/20 08:25:55;;;;;;;4.23;2.80;;;;;;;1.22;66.23;99133.47;5092500;28;20216;-69
2021/03/20 08:28:39;;;;;;;4.47;2.47;;;;;;;1.15;68.05;99140.53;5094439;28;20223;-69
2021/03/20 08:31:09;;;;;;;4.80;2.93;;;;;;;1.31;68.86;99155.03;5094411;28;20208;-70
2021/03/20 08:34:01;;;;;;;3.10;2.80;;;;;;;1.58;71.22;99159.75;5094014;28;20215;-70
2021/03/20 08:36:40;;;;;;;3.43;2.63;;;;;;;1.76;70.58;99159.44;5094291;28;20211;-70
2021/03/20 08:39:19;;;;;;;4.67;2.97;;;;;;;1.81;70.74;99169.75;5093953;28;20664;-70
2021/03/20 08:41:54;;;;;;;3.27;2.47;;;;;;;1.87;70.33;99161.81;5093687;28;20232;-68
2021/03/20 08:44:46;;;;;;;2.77;2.47;;;;;;;1.86;67.66;99171.41;5093954;28;20210;-68
2021/03/20 08:47:35;;;;;;;4.00;2.80;;;;;;;1.91;67.56;99181.75;5094093;28;20207;-69
2021/03/20 08:50:15;;;;;;;3.20;2.90;;;;;;;1.83;67.68;99179.28;5093395;28;20204;-69
2021/03/20 08:52:51;;;;;;;2.50;2.30;;;;;;;1.93;64.87;99193.88;5093956;28;20219;-69
2021/03/20 08:55:52;;;;;;;3.10;2.80;;;;;;;1.99;66.60;99187.66;5093979;28;20210;-69
2021/03/20 08:58:38;;;;;;;3.43;2.90;;;;;;;2.08;66.61;99183.13;5060362;28;20208;-69
2021/03/20 09:01:11;;;;;;;3.20;2.17;;;;;;;2.18;64.17;99187.31;5093556;28;20255;-69
2021/03/20 09:03:43;;;;;;;2.93;2.57;;;;;;;2.53;68.47;99174.41;5093762;28;20220;-69
2021/03/20 09:06:23;;;;;;;3.20;2.30;;;;;;;2.96;63.98;99177.81;5093827;28;20234;-69
2021/03/20 09:08:51;;;;;;;3.07;2.50;;;;;;;3.30;62.30;99183.97;5093497;28;20630;-69
2021/03/20 09:11:32;;;;;;;3.40;2.60;;;;;;;3.38;58.84;99181.16;5093352;28;20215;-69
2021/03/20 09:14:03;;;;;;;2.93;2.60;;;;;;;3.49;62.80;99174.78;5093466;28;20599;-68
2021/03/20 09:16:34;;;;;;;2.53;2.33;;;;;;;3.71;60.19;99173.34;5091896;28;20293;-69
2021/03/20 09:19:03;;;;;;;2.53;2.23;;;;;;;3.77;60.44;99175.81;5093363;28;20203;-69
2021/03/20 09:21:32;;;;;;;2.87;2.30;;;;;;;4.18;62.59;99177.31;5093383;28;20232;-69
2021/03/20 09:24:06;;;;;;;2.97;2.20;;;;;;;4.39;54.16;99179.38;5093331;28;20214;-68
2021/03/20 09:26:44;;;;;;;2.57;2.20;;;;;;;4.42;57.12;99180.13;5093658;28;20215;-69
2021/03/20 09:29:19;;;;;;;2.77;2.43;;;;;;;4.39;57.95;99180.19;5093006;28;20670;-69
2021/03/20 09:32:10;;;;;;;2.80;2.47;;;;;;;4.20;58.99;99192.09;5093333;28;20592;-69
2021/03/20 09:34:50;;;;;;;5.73;2.60;;;;;;;4.09;58.33;99188.06;5092784;28;20745;-68
2021/03/20 09:37:57;;;;;;;3.23;2.40;;;;;;;3.93;56.53;99182.38;5090112;28;20220;-68
2021/03/20 09:40:51;;;;;;;2.40;1.93;;;;;;;3.99;57.96;99186.56;5092427;28;20231;-69
2021/03/20 09:43:35;;;;;;;3.67;2.70;;;;;;;3.95;59.03;99174.47;5061039;28;20207;-68
2021/03/20 09:46:41;;;;;;;2.57;2.27;;;;;;;3.98;59.50;99179.63;5080324;28;20206;-68
2021/03/20 09:49:52;;;;;;;2.60;2.30;;;;;;;3.96;57.80;99169.19;5090490;28;20231;-68
2021/03/20 09:52:49;;;;;;;3.37;2.30;;;;;;;4.01;56.02;99177.78;5091852;28;20229;-68
2021/03/20 09:55:50;;;;;;;2.70;2.50;;;;;;;4.03;57.96;99173.34;5057506;28;20207;-68
2021/03/20 09:58:37;;;;;;;2.83;2.03;;;;;;;3.98;53.97;99175.22;5091269;28;20578;-69
2021/03/20 10:01:18;;;;;;;3.07;2.50;;;;;;;3.98;53.10;99172.63;5095219;28;20242;-69
2021/03/20 10:03:47;;;;;;;2.63;2.00;;;;;;;4.05;55.15;99171.59;5096395;28;20682;-68
2021/03/20 10:06:20;;;;;;;3.03;2.53;;;;;;;4.10;50.16;99167.06;5095229;28;20207;-68
2021/03/20 10:08:48;;;;;;;2.90;2.27;;;;;;;4.18;59.27;99157.25;5094695;28;20698;-69
2021/03/20 10:11:30;;;;;;;3.33;2.40;;;;;;;4.35;57.87;99168.09;5095903;28;20216;-69
2021/03/20 10:13:56;;;;;;;2.90;2.00;;;;;;;4.30;56.13;99167.38;5097023;28;20241;-69
2021/03/20 10:16:34;;;;;;;2.00;1.80;;;;;;;4.05;50.63;99166.34;5097028;28;20582;-69
2021/03/20 10:19:10;;;;;;;4.30;2.27;;;;;;;3.89;52.85;99164.16;5097071;28;20216;-68
2021/03/20 10:21:37;;;;;;;2.30;2.10;;;;;;;3.50;48.92;99162.56;5096879;28;20229;-68
2021/03/20 10:24:24;;;;;;;2.20;1.67;;;;;;;2.92;49.06;99163.09;5096913;28;20213;-69
2021/03/20 10:26:58;;;;;;;3.30;2.37;;;;;;;2.56;49.03;99161.28;5096777;28;20210;-69
2021/03/20 10:29:28;;;;;;;2.67;2.20;;;;;;;2.58;51.13;99156.88;5096953;28;20213;-68
2021/03/20 10:32:01;;;;;;;2.40;2.20;;;;;;;2.61;49.70;99163.78;5096535;28;20298;-69
2021/03/20 10:34:27;;;;;;;2.37;2.10;;;;;;;2.31;47.12;99174.84;5096545;28;20206;-70
2021/03/20 10:37:03;;;;;;;3.87;2.17;;;;;;;2.48;52.96;99173.66;5094675;28;20210;-71
2021/03/20 10:39:33;;;;;;;2.03;1.83;;;;;;;2.47;53.96;99166.72;5096607;28;20211;-69
2021/03/20 10:42:04;;;;;;;3.70;2.13;;;;;;;2.58;59.64;99175.16;5094540;28;20275;-69
2021/03/20 10:44:36;;;;;;;2.30;2.10;;;;;;;2.74;50.51;99173.06;5096403;28;20237;-70
2021/03/20 10:47:07;;;;;;;2.63;2.43;;;;;;;2.80;51.97;99171.19;5096699;28;20210;-68
2021/03/20 10:49:39;;;;;;;3.27;2.10;;;;;;;2.85;50.98;99179.78;5096096;28;20737;-69
2021/03/20 10:52:15;;;;;;;2.67;2.10;;;;;;;2.72;51.34;99165.31;5096311;28;20207;-71
2021/03/20 10:54:44;;;;;;;2.40;2.13;;;;;;;2.76;49.00;99164.31;5096199;28;20211;-69
2021/03/20 10:57:15;;;;;;;2.50;2.30;;;;;;;2.79;52.02;99152.94;5096163;28;20211;-69
2021/03/20 10:59:44;;;;;;;5.40;2.50;;;;;;;3.25;55.20;99153.63;5095774;28;20214;-69
2021/03/20 11:02:30;;;;;;;3.43;2.50;;;;;;;3.44;57.07;99152.28;5094431;28;20214;-69
2021/03/20 11:05:12;;;;;;;2.77;2.40;;;;;;;3.67;59.36;99147.34;5096120;28;20215;-69
2021/03/20 11:07:46;;;;;;;4.80;2.67;;;;;;;3.86;52.96;99148.56;5095838;28;20276;-70
2021/03/20 11:10:14;;;;;;;3.00;2.60;;;;;;;4.05;59.63;99142.81;5095986;28;20221;-69
2021/03/20 11:12:42;;;;;;;2.30;2.10;;;;;;;4.21;59.87;99149.31;5094405;28;20277;-69
2021/03/20 11:15:19;;;;;;;3.50;2.80;;;;;;;4.19;59.50;99142.41;5095848;28;20211;-69
2021/03/20 11:17:52;;;;;;;3.00;2.70;;;;;;;4.21;57.89;99146.69;5095772;28;20229;-70
2021/03/20 11:20:23;;;;;;;3.37;2.53;;;;;;;4.34;55.66;99152.47;5095266;28;20239;-69
2021/03/20 11:22:50;;;;;;;3.23;2.40;;;;;;;4.37;53.76;99150.63;5095800;28;20301;-68
2021/03/20 11:25:19;;;;;;;2.57;2.37;;;;;;;4.29;54.11;99160.41;5095913;28;20246;-68
2021/03/20 11:27:57;;;;;;;3.57;2.50;;;;;;;4.16;53.05;99156.44;5094057;28;20269;-68
2021/03/20 11:30:28;;;;;;;3.23;2.73;;;;;;;4.18;48.99;99157.25;5095543;28;20567;-69
2021/03/20 11:33:00;;;;;;;2.90;2.50;;;;;;;3.95;48.36;99153.53;5095540;28;20208;-69
2021/03/20 11:35:28;;;;;;;3.83;2.73;;;;;;;3.75;47.86;99151.47;5095144;28;20212;-69
2021/03/20 11:38:00;;;;;;;3.60;2.80;;;;;;;3.80;49.39;99154.78;5095500;28;20215;-69
2021/03/20 11:40:28;;;;;;;3.67;2.47;;;;;;;3.74;49.61;99152.34;5095358;28;20231;-69
2021/03/20 11:42:59;;;;;;;3.87;2.40;;;;;;;3.68;49.56;99144.66;5074785;28;20210;-69
2021/03/20 11:45:28;;;;;;;4.47;2.73;;;;;;;3.53;52.15;99145.06;5075129;28;20204;-68
2021/03/20 11:47:58;;;;;;;5.23;2.40;;;;;;;3.38;47.56;99158.53;5074707;28;20212;-70
2021/03/20 11:50:28;;;;;;;3.90;2.60;;;;;;;3.16;52.23;99157.31;5074642;28;20226;-69
2021/03/20 11:52:58;;;;;;;4.60;2.90;;;;;;;3.05;49.62;99135.81;5074053;28;20215;-69
2021/03/20 11:55:33;;;;;;;2.73;2.50;;;;;;;3.12;50.00;99141.75;5073885;28;20211;-69
2021/03/20 11:58:02;;;;;;;2.57;2.37;;;;;;;3.31;49.67;99138.63;5074854;28;20559;-71
2021/03/20 12:00:37;;;;;;;3.27;2.50;;;;;;;3.60;48.62;99124.88;5074638;28;20247;-71
2021/03/20 12:03:09;;;;;;;2.77;2.53;;;;;;;4.02;51.17;99116.72;5074755;28;20207;-69
2021/03/20 12:05:36;;;;;;;2.90;2.53;;;;;;;4.55;57.53;99115.19;5074272;28;20215;-70